Terminal Aerodrome Forecast
Issued by NWS

Home | Current Version | Previous Version | Text Only | Print | Product List | Glossary On
Versions: 1 2 3 4 5 6 7 8 9 10 11 12 13 14 15 16
000
FTUS46 KMTR 241100
TAFOAK
TAF
KOAK 241120Z 2412/2518 21007KT P6SM SCT012
      TEMPO 2412/2415 BKN012
     FM241500 24010KT P6SM OVC012
     FM241900 26014KT P6SM FEW015 SCT250
     FM250600 26009KT P6SM BKN015
     FM250800 27007KT P6SM OVC012=

USA.gov is the U.S. government's official web portal to all federal, state and local government web resources and services.